createdAt,value
2019-02-19T00:00:40.890Z,64.76
2019-02-19T00:03:09.456Z,64.83
2019-02-19T00:05:37.776Z,64.88
2019-02-19T00:08:06.077Z,64.90
2019-02-19T00:10:34.380Z,64.97
2019-02-19T00:13:02.674Z,65.04
2019-02-19T00:15:31.001Z,65.21
2019-02-19T00:17:59.283Z,65.17
2019-02-19T00:20:27.623Z,65.24
2019-02-19T00:22:55.945Z,65.28
2019-02-19T00:25:24.275Z,65.37
2019-02-19T00:27:52.873Z,65.48
2019-02-19T00:30:21.158Z,65.51
2019-02-19T00:32:49.472Z,65.67
2019-02-19T00:35:17.793Z,65.71
2019-02-19T00:37:46.185Z,65.78
2019-02-19T00:40:14.759Z,65.85
2019-02-19T00:42:43.074Z,65.97
2019-02-19T00:45:16.606Z,66.05
2019-02-19T00:47:41.734Z,66.10
2019-02-19T00:50:10.199Z,66.14
2019-02-19T00:52:38.502Z,66.26
2019-02-19T00:55:07.231Z,66.23
2019-02-19T00:57:35.521Z,66.54
2019-02-19T01:00:05.276Z,66.69
2019-02-19T01:02:33.581Z,66.67
2019-02-19T01:05:01.904Z,66.63
2019-02-19T01:07:30.254Z,66.67
2019-02-19T01:09:58.569Z,66.69
2019-02-19T01:12:26.934Z,66.65
2019-02-19T01:14:55.250Z,66.68
2019-02-19T01:17:23.534Z,66.85
2019-02-19T01:19:51.832Z,66.89
2019-02-19T01:22:20.188Z,67.07
2019-02-19T01:24:48.506Z,67.29
2019-02-19T01:27:16.805Z,67.42
2019-02-19T01:29:45.129Z,67.57
2019-02-19T01:32:13.455Z,67.71
2019-02-19T01:34:41.830Z,67.77
2019-02-19T01:37:10.114Z,68.09
2019-02-19T01:39:38.434Z,68.19
2019-02-19T01:42:06.730Z,68.30
2019-02-19T01:44:35.074Z,68.27
2019-02-19T01:47:03.396Z,68.39
2019-02-19T01:49:31.686Z,68.45
2019-02-19T01:52:00.012Z,68.53
2019-02-19T01:54:28.303Z,68.71
2019-02-19T01:56:56.632Z,68.84
2019-02-19T01:59:24.923Z,68.51
2019-02-19T02:01:53.251Z,68.41
2019-02-19T02:04:21.535Z,68.54
2019-02-19T02:06:49.828Z,68.61
2019-02-19T02:09:18.140Z,68.54
2019-02-19T02:11:46.423Z,68.48
2019-02-19T02:14:14.741Z,68.64
2019-02-19T02:16:43.031Z,68.83
2019-02-19T02:19:11.357Z,68.78
2019-02-19T02:21:39.639Z,68.93
2019-02-19T02:24:07.962Z,69.08
2019-02-19T02:26:36.262Z,69.18
2019-02-19T02:29:04.579Z,69.21
2019-02-19T02:31:32.879Z,69.17
2019-02-19T02:34:01.188Z,69.26
2019-02-19T02:36:29.507Z,69.09
2019-02-19T02:38:57.800Z,69.29
2019-02-19T02:41:26.176Z,69.36
2019-02-19T02:43:54.546Z,69.61
2019-02-19T02:46:22.855Z,69.63
2019-02-19T02:48:51.140Z,69.83
2019-02-19T02:51:19.457Z,70.05
2019-02-19T02:53:47.752Z,70.22
2019-02-19T02:56:16.080Z,70.43
2019-02-19T02:58:44.416Z,70.65
2019-02-19T03:01:12.713Z,70.55
2019-02-19T03:03:41.337Z,70.85
2019-02-19T03:06:14.033Z,70.96
2019-02-19T03:08:42.689Z,71.15
2019-02-19T03:11:10.992Z,71.26
2019-02-19T03:13:39.292Z,71.13
2019-02-19T03:16:07.615Z,71.19
2019-02-19T03:18:35.915Z,71.21
2019-02-19T03:21:04.238Z,71.38
2019-02-19T03:23:32.541Z,71.62
2019-02-19T03:26:00.850Z,71.81
2019-02-19T03:28:29.147Z,72.09
2019-02-19T03:30:57.466Z,72.19
2019-02-19T03:33:26.071Z,72.29
2019-02-19T03:35:54.412Z,72.38
2019-02-19T03:38:22.744Z,72.60
2019-02-19T03:40:51.021Z,72.98
2019-02-19T03:43:19.335Z,73.23
2019-02-19T03:45:47.627Z,73.56
2019-02-19T03:48:15.943Z,73.52
2019-02-19T03:50:44.251Z,73.79
2019-02-19T03:53:12.591Z,74.07
2019-02-19T03:55:40.890Z,74.43
2019-02-19T03:58:09.253Z,74.70
2019-02-19T04:00:37.673Z,75.19
2019-02-19T04:03:06.315Z,75.79
2019-02-19T04:05:34.626Z,76.28
2019-02-19T04:08:02.911Z,77.03
2019-02-19T04:10:31.220Z,77.23
2019-02-19T04:12:59.510Z,77.47
2019-02-19T04:15:27.820Z,77.97
2019-02-19T04:17:56.108Z,78.40
2019-02-19T04:20:24.464Z,78.89
2019-02-19T04:22:52.748Z,79.17
2019-02-19T04:25:21.071Z,79.70
2019-02-19T04:27:49.370Z,79.96
2019-02-19T04:30:17.958Z,80.35
2019-02-19T04:32:46.264Z,80.91
2019-02-19T04:35:14.570Z,81.16
2019-02-19T04:37:42.905Z,81.88
2019-02-19T04:40:11.199Z,82.31
2019-02-19T04:42:39.516Z,82.20
2019-02-19T04:45:08.253Z,82.36
2019-02-19T04:47:36.553Z,82.73
2019-02-19T04:50:06.815Z,83.01
2019-02-19T04:52:35.132Z,83.14
2019-02-19T04:55:03.535Z,83.04
2019-02-19T04:57:31.842Z,83.44
2019-02-19T05:00:01.072Z,83.56
2019-02-19T05:02:29.392Z,83.57
2019-02-19T05:04:57.697Z,83.71
2019-02-19T05:07:26.011Z,83.65
2019-02-19T05:09:54.317Z,83.73
2019-02-19T05:12:22.772Z,83.71
2019-02-19T05:14:51.086Z,83.87
2019-02-19T05:17:19.391Z,83.82
2019-02-19T05:19:47.707Z,83.85
2019-02-19T05:22:16.012Z,83.79
2019-02-19T05:24:44.370Z,83.83
2019-02-19T05:27:12.687Z,83.78
2019-02-19T05:29:40.976Z,83.81
2019-02-19T05:32:09.282Z,83.74
2019-02-19T05:34:37.694Z,83.68
2019-02-19T05:37:06.015Z,83.64
2019-02-19T05:39:34.610Z,83.57
2019-02-19T05:42:02.914Z,83.56
2019-02-19T05:44:31.208Z,83.44
2019-02-19T05:46:59.546Z,83.45
2019-02-19T05:49:27.844Z,83.36
2019-02-19T05:51:56.166Z,83.42
2019-02-19T05:54:24.464Z,83.49
2019-02-19T05:56:52.789Z,83.50
2019-02-19T05:59:21.333Z,83.49
2019-02-19T06:01:50.013Z,83.41
2019-02-19T06:04:18.321Z,83.34
2019-02-19T06:06:46.616Z,83.29
2019-02-19T06:09:14.923Z,83.20
2019-02-19T06:11:43.531Z,83.30
2019-02-19T06:14:11.839Z,83.24
2019-02-19T06:16:40.157Z,83.23
2019-02-19T06:19:08.475Z,83.39
2019-02-19T06:21:36.788Z,83.33
2019-02-19T06:24:05.176Z,83.52
2019-02-19T06:26:33.487Z,83.52
2019-02-19T06:29:01.786Z,83.71
2019-02-19T06:31:30.102Z,83.71
2019-02-19T06:33:58.389Z,83.68
2019-02-19T06:36:26.774Z,83.69
2019-02-19T06:38:55.077Z,83.64
2019-02-19T06:41:23.381Z,83.65
2019-02-19T06:43:51.765Z,83.78
2019-02-19T06:46:20.107Z,83.85
2019-02-19T06:48:48.420Z,83.89
2019-02-19T06:51:16.810Z,83.79
2019-02-19T06:53:45.173Z,83.85
2019-02-19T06:56:13.503Z,83.87
2019-02-19T06:58:42.117Z,83.94
2019-02-19T07:01:10.533Z,83.80
2019-02-19T07:03:40.479Z,84.00
2019-02-19T07:06:08.787Z,84.13
2019-02-19T07:08:37.094Z,84.03
2019-02-19T07:11:05.468Z,84.29
2019-02-19T07:13:34.126Z,84.39
2019-02-19T07:16:02.443Z,84.41
2019-02-19T07:18:30.765Z,84.31
2019-02-19T07:20:59.066Z,84.37
2019-02-19T07:23:27.376Z,84.28
2019-02-19T07:25:56.031Z,83.99
2019-02-19T07:28:24.332Z,84.10
2019-02-19T07:30:52.687Z,84.01
2019-02-19T07:33:20.985Z,83.91
2019-02-19T07:35:49.279Z,84.01
2019-02-19T07:38:17.911Z,83.85
2019-02-19T07:40:46.242Z,83.58
2019-02-19T07:43:14.541Z,83.77
2019-02-19T07:45:43.015Z,83.71
2019-02-19T07:48:11.625Z,83.78
2019-02-19T07:50:39.932Z,83.24
2019-02-19T07:53:08.597Z,83.30
2019-02-19T07:55:36.908Z,83.34
2019-02-19T07:58:05.238Z,83.50
2019-02-19T08:00:33.550Z,83.34
2019-02-19T08:03:01.858Z,82.92
2019-02-19T08:05:30.583Z,82.79
2019-02-19T08:07:58.896Z,82.91
2019-02-19T08:10:27.193Z,82.55
2019-02-19T08:12:55.518Z,81.81
2019-02-19T08:15:23.817Z,82.22
2019-02-19T08:17:52.095Z,82.22
2019-02-19T08:20:20.471Z,81.77
2019-02-19T08:22:48.776Z,81.77
2019-02-19T08:25:17.096Z,81.53
2019-02-19T08:27:45.700Z,80.81
2019-02-19T08:30:14.052Z,80.51
2019-02-19T08:32:42.374Z,80.88
2019-02-19T08:35:11.032Z,80.92
2019-02-19T08:37:39.622Z,80.75
2019-02-19T08:40:09.479Z,80.59
2019-02-19T08:42:37.793Z,80.95
2019-02-19T08:45:08.039Z,81.15
2019-02-19T08:47:42.306Z,80.84
2019-02-19T08:50:07.824Z,81.07
2019-02-19T08:52:36.446Z,80.69
2019-02-19T08:55:06.147Z,80.74
2019-02-19T08:57:34.451Z,80.88
2019-02-19T09:00:02.754Z,80.78
2019-02-19T09:02:31.090Z,80.76
2019-02-19T09:04:59.399Z,80.38
2019-02-19T09:07:27.684Z,80.14
2019-02-19T09:09:56.013Z,79.63
2019-02-19T09:12:24.353Z,79.03
2019-02-19T09:14:52.978Z,79.13
2019-02-19T09:17:21.275Z,78.74
2019-02-19T09:19:49.597Z,78.42
2019-02-19T09:22:18.211Z,78.35
2019-02-19T09:24:46.517Z,78.07
2019-02-19T09:27:14.824Z,76.87
2019-02-19T09:29:43.142Z,76.16
2019-02-19T09:32:12.037Z,76.14
2019-02-19T09:34:40.355Z,75.19
2019-02-19T09:37:08.648Z,75.50
2019-02-19T09:39:37.265Z,74.31
2019-02-19T09:42:05.574Z,73.48
2019-02-19T09:44:33.916Z,74.25
2019-02-19T09:47:02.217Z,74.14
2019-02-19T09:49:30.529Z,74.41
2019-02-19T09:51:59.158Z,73.85
2019-02-19T09:54:27.462Z,73.07
2019-02-19T09:56:55.779Z,73.45
2019-02-19T09:59:24.082Z,73.60
2019-02-19T10:01:52.390Z,73.41
2019-02-19T10:04:20.802Z,73.96
2019-02-19T10:06:49.128Z,73.29
2019-02-19T10:09:17.426Z,72.72
2019-02-19T10:11:45.738Z,71.92
2019-02-19T10:14:14.396Z,71.59
2019-02-19T10:16:43.061Z,71.15
2019-02-19T10:19:11.532Z,70.54
2019-02-19T10:21:40.124Z,70.94
2019-02-19T10:24:08.454Z,70.78
2019-02-19T10:26:37.074Z,69.84
2019-02-19T10:29:05.659Z,70.22
2019-02-19T10:31:33.972Z,69.63
2019-02-19T10:34:02.630Z,68.33
2019-02-19T10:36:31.214Z,68.31
2019-02-19T10:38:59.536Z,67.40
2019-02-19T10:41:27.898Z,67.48
2019-02-19T10:43:56.296Z,66.78
2019-02-19T10:46:24.605Z,65.94
2019-02-19T10:48:52.913Z,66.31
2019-02-19T10:51:21.226Z,65.72
2019-02-19T10:53:49.536Z,65.76
2019-02-19T10:56:17.858Z,65.45
2019-02-19T10:58:46.144Z,65.09
2019-02-19T11:01:14.809Z,64.63
2019-02-19T11:03:43.102Z,64.66
2019-02-19T11:06:11.775Z,63.74
2019-02-19T11:08:40.070Z,63.48
2019-02-19T11:11:08.630Z,64.01
2019-02-19T11:13:37.314Z,63.65
2019-02-19T11:16:05.648Z,63.29
2019-02-19T11:18:33.975Z,63.16
2019-02-19T11:21:02.311Z,62.64
2019-02-19T11:23:30.641Z,62.15
2019-02-19T11:25:58.917Z,61.88
2019-02-19T11:28:27.230Z,61.99
2019-02-19T11:30:55.548Z,60.79
2019-02-19T11:33:23.954Z,60.33
2019-02-19T11:35:52.612Z,60.42
2019-02-19T11:38:21.001Z,60.62
2019-02-19T11:40:49.321Z,60.19
2019-02-19T11:43:17.613Z,60.96
2019-02-19T11:45:45.945Z,61.26
2019-02-19T11:48:14.275Z,61.35
2019-02-19T11:50:42.588Z,60.99
2019-02-19T11:53:10.892Z,61.78
2019-02-19T11:55:39.526Z,62.28
2019-02-19T11:58:07.892Z,62.16
2019-02-19T12:00:41.229Z,62.78
2019-02-19T12:03:09.555Z,62.26
2019-02-19T12:05:37.887Z,62.28
2019-02-19T12:08:06.227Z,62.51
2019-02-19T12:10:34.817Z,62.65
2019-02-19T12:13:03.123Z,62.81
2019-02-19T12:15:35.206Z,62.75
2019-02-19T12:18:01.800Z,63.13
2019-02-19T12:20:30.121Z,62.75
2019-02-19T12:22:58.425Z,62.50
2019-02-19T12:25:27.043Z,62.10
2019-02-19T12:27:55.347Z,61.78
2019-02-19T12:30:23.639Z,61.57
2019-02-19T12:32:51.952Z,61.63
2019-02-19T12:35:20.551Z,60.82
2019-02-19T12:37:48.907Z,60.90
2019-02-19T12:40:17.218Z,60.93
2019-02-19T12:42:45.554Z,60.22
2019-02-19T12:45:15.129Z,60.27
2019-02-19T12:47:43.429Z,60.73
2019-02-19T12:50:16.745Z,60.29
2019-02-19T12:52:45.060Z,60.46
2019-02-19T12:55:13.618Z,60.47
2019-02-19T12:57:42.337Z,60.93
2019-02-19T13:00:13.463Z,61.06
2019-02-19T13:02:41.784Z,60.98
2019-02-19T13:05:11.466Z,61.05
2019-02-19T13:07:39.783Z,60.59
2019-02-19T13:10:10.050Z,59.72
2019-02-19T13:12:38.377Z,59.62
2019-02-19T13:15:21.277Z,58.97
2019-02-19T13:17:49.595Z,58.98
2019-02-19T13:20:18.230Z,59.05
2019-02-19T13:22:46.886Z,58.84
2019-02-19T13:25:15.192Z,58.51
2019-02-19T13:27:43.495Z,58.38
2019-02-19T13:30:19.847Z,57.84
2019-02-19T13:32:48.491Z,58.59
2019-02-19T13:35:16.781Z,58.68
2019-02-19T13:37:45.067Z,58.69
2019-02-19T13:40:16.001Z,59.24
2019-02-19T13:42:44.304Z,59.56
2019-02-19T13:45:14.266Z,59.78
2019-02-19T13:47:42.808Z,60.06
2019-02-19T13:50:22.769Z,60.36
2019-02-19T13:53:09.117Z,60.66
2019-02-19T13:55:42.516Z,61.18
2019-02-19T13:58:10.856Z,61.14
2019-02-19T14:00:40.792Z,61.16
2019-02-19T14:03:09.162Z,60.85
2019-02-19T14:05:37.455Z,60.66
2019-02-19T14:08:14.008Z,60.63
2019-02-19T14:10:36.347Z,60.05
2019-02-19T14:13:05.043Z,60.09
2019-02-19T14:15:43.855Z,60.09
2019-02-19T14:18:13.818Z,60.21
2019-02-19T14:20:44.121Z,60.24
2019-02-19T14:23:16.774Z,59.92
2019-02-19T14:25:52.950Z,60.19
2019-02-19T14:28:32.276Z,59.84
2019-02-19T14:31:04.631Z,59.76
2019-02-19T14:33:37.487Z,59.21
2019-02-19T14:36:07.457Z,59.62
2019-02-19T14:38:37.414Z,59.82
2019-02-19T14:41:22.446Z,60.35
2019-02-19T14:44:09.036Z,60.86
2019-02-19T14:46:38.979Z,61.03
2019-02-19T14:49:36.620Z,61.13
2019-02-19T14:52:14.977Z,60.87
2019-02-19T14:55:01.220Z,60.75
2019-02-19T14:57:31.167Z,60.68
2019-02-19T15:00:10.094Z,60.45
2019-02-19T15:02:45.808Z,59.78
2019-02-19T15:05:16.047Z,59.58
2019-02-19T15:07:46.093Z,59.29
2019-02-19T15:10:32.545Z,59.11
2019-02-19T15:13:05.176Z,58.82
2019-02-19T15:15:38.077Z,58.89
2019-02-19T15:18:20.008Z,59.24
2019-02-19T15:20:49.937Z,58.87
2019-02-19T15:23:34.651Z,58.90
2019-02-19T15:26:04.578Z,59.01
2019-02-19T15:28:46.815Z,59.19
2019-02-19T15:31:25.764Z,58.97
2019-02-19T15:33:55.704Z,58.98
2019-02-19T15:36:31.600Z,58.71
2019-02-19T15:39:01.556Z,58.29
2019-02-19T15:41:33.892Z,58.55
2019-02-19T15:44:03.821Z,58.81
2019-02-19T15:46:33.787Z,58.68
2019-02-19T15:49:06.435Z,58.86
2019-02-19T15:51:42.219Z,58.77
2019-02-19T15:54:12.170Z,58.96
2019-02-19T15:57:00.225Z,58.64
2019-02-19T15:59:32.922Z,58.89
2019-02-19T16:02:11.912Z,59.16
2019-02-19T16:04:57.806Z,59.03
2019-02-19T16:07:28.064Z,59.24
2019-02-19T16:09:58.202Z,59.71
2019-02-19T16:12:28.491Z,59.71
2019-02-19T16:15:04.404Z,59.83
2019-02-19T16:17:34.359Z,60.15
2019-02-19T16:20:13.313Z,60.32
2019-02-19T16:22:43.254Z,60.70
2019-02-19T16:25:29.614Z,60.54
2019-02-19T16:28:14.807Z,60.58
2019-02-19T16:30:47.751Z,61.04
2019-02-19T16:33:26.758Z,61.19
2019-02-19T16:36:08.734Z,61.58
2019-02-19T16:38:38.998Z,61.80
2019-02-19T16:41:17.873Z,61.88
2019-02-19T16:43:47.986Z,61.98
2019-02-19T16:46:33.022Z,62.18
2019-02-19T16:49:12.186Z,62.21
2019-02-19T16:51:48.307Z,62.35
2019-02-19T16:54:21.138Z,62.53
2019-02-19T16:57:00.179Z,62.72
2019-02-19T16:59:30.129Z,62.83
2019-02-19T17:02:08.988Z,62.96
2019-02-19T17:04:39.282Z,63.13
2019-02-19T17:07:09.215Z,63.25
2019-02-19T17:09:39.152Z,63.29
2019-02-19T17:12:12.039Z,63.30
2019-02-19T17:14:47.738Z,63.51
2019-02-19T17:17:17.703Z,63.60
2019-02-19T17:19:56.690Z,63.80
2019-02-19T17:22:38.802Z,63.83
2019-02-19T17:25:18.670Z,63.87
2019-02-19T17:28:05.098Z,63.96
2019-02-19T17:30:35.030Z,64.32
2019-02-19T17:33:13.999Z,64.64
2019-02-19T17:36:00.592Z,64.84
2019-02-19T17:38:30.533Z,65.15
2019-02-19T17:41:09.345Z,65.37
2019-02-19T17:43:41.984Z,65.67
2019-02-19T17:46:20.965Z,65.86
2019-02-19T17:49:07.465Z,65.88
2019-02-19T17:51:37.429Z,65.93
2019-02-19T17:54:22.383Z,66.10
2019-02-19T17:56:58.044Z,66.20
2019-02-19T17:59:30.706Z,66.31
2019-02-19T18:02:16.100Z,66.50
2019-02-19T18:04:58.327Z,66.74
2019-02-19T18:07:28.519Z,66.76
2019-02-19T18:10:16.819Z,66.74
2019-02-19T18:12:55.474Z,66.83
2019-02-19T18:15:25.419Z,66.91
2019-02-19T18:17:58.369Z,67.02
2019-02-19T18:20:26.651Z,67.09
2019-02-19T18:22:54.962Z,67.19
2019-02-19T18:25:23.261Z,67.17
2019-02-19T18:27:51.823Z,67.32
2019-02-19T18:30:20.416Z,67.40
2019-02-19T18:32:48.714Z,67.50
2019-02-19T18:35:17.039Z,67.50
2019-02-19T18:37:45.337Z,67.50
2019-02-19T18:40:13.952Z,67.53
2019-02-19T18:42:42.512Z,67.57
2019-02-19T18:45:11.097Z,67.56
2019-02-19T18:47:39.679Z,67.63
2019-02-19T18:50:09.388Z,67.59
2019-02-19T18:52:37.679Z,67.60
2019-02-19T18:55:07.543Z,67.62
2019-02-19T18:57:35.889Z,67.65
2019-02-19T19:00:04.938Z,67.63
2019-02-19T19:02:33.247Z,67.64
2019-02-19T19:05:01.660Z,67.63
2019-02-19T19:07:29.961Z,67.58
2019-02-19T19:09:58.266Z,67.66
2019-02-19T19:12:26.570Z,67.79
2019-02-19T19:14:54.879Z,67.83
2019-02-19T19:17:23.189Z,67.96
2019-02-19T19:19:51.484Z,68.01
2019-02-19T19:22:19.804Z,67.97
2019-02-19T19:24:48.126Z,67.92
2019-02-19T19:27:16.402Z,67.94
2019-02-19T19:29:44.691Z,68.00
2019-02-19T19:32:13.022Z,68.06
2019-02-19T19:34:41.332Z,68.10
2019-02-19T19:37:09.640Z,68.14
2019-02-19T19:39:37.952Z,68.26
2019-02-19T19:42:06.297Z,68.33
2019-02-19T19:44:34.618Z,68.35
2019-02-19T19:47:03.180Z,68.41
2019-02-19T19:49:31.506Z,68.51
2019-02-19T19:51:59.808Z,68.54
2019-02-19T19:54:28.131Z,68.64
2019-02-19T19:56:56.464Z,68.67
2019-02-19T19:59:24.847Z,68.94
2019-02-19T20:01:53.241Z,69.17
2019-02-19T20:04:21.544Z,69.28
2019-02-19T20:06:49.914Z,69.43
2019-02-19T20:09:18.184Z,69.57
2019-02-19T20:11:46.494Z,69.89
2019-02-19T20:14:14.801Z,70.22
2019-02-19T20:16:43.089Z,70.39
2019-02-19T20:19:11.399Z,70.56
2019-02-19T20:21:39.711Z,70.62
2019-02-19T20:24:08.033Z,70.75
2019-02-19T20:26:36.331Z,70.82
2019-02-19T20:29:04.739Z,70.80
2019-02-19T20:31:33.313Z,70.91
2019-02-19T20:34:01.637Z,71.04
2019-02-19T20:36:29.943Z,71.12
2019-02-19T20:38:58.254Z,71.10
2019-02-19T20:41:26.557Z,71.21
2019-02-19T20:43:54.983Z,71.27
2019-02-19T20:46:23.286Z,71.33
2019-02-19T20:48:51.609Z,71.28
2019-02-19T20:51:19.929Z,71.24
2019-02-19T20:53:48.232Z,71.24
2019-02-19T20:56:16.559Z,71.35
2019-02-19T20:58:44.860Z,71.53
2019-02-19T21:01:13.191Z,71.61
2019-02-19T21:03:41.548Z,71.77
2019-02-19T21:06:10.384Z,71.84
2019-02-19T21:08:38.823Z,72.05
2019-02-19T21:11:07.137Z,72.16
2019-02-19T21:13:35.436Z,72.42
2019-02-19T21:16:03.779Z,72.61
2019-02-19T21:18:32.140Z,72.84
2019-02-19T21:21:00.463Z,72.99
2019-02-19T21:23:28.768Z,72.97
2019-02-19T21:25:57.076Z,72.94
2019-02-19T21:28:25.754Z,72.94
2019-02-19T21:30:54.509Z,72.99
2019-02-19T21:33:23.092Z,72.94
2019-02-19T21:35:52.771Z,72.93
2019-02-19T21:38:21.181Z,72.90
2019-02-19T21:40:49.489Z,72.90
2019-02-19T21:43:17.824Z,72.95
2019-02-19T21:45:46.112Z,72.95
2019-02-19T21:48:14.442Z,73.05
2019-02-19T21:50:43.074Z,73.11
2019-02-19T21:53:11.384Z,73.28
2019-02-19T21:55:39.665Z,73.40
2019-02-19T21:58:07.982Z,73.44
2019-02-19T22:00:36.283Z,73.32
2019-02-19T22:03:04.680Z,73.16
2019-02-19T22:05:32.987Z,73.14
2019-02-19T22:08:01.309Z,73.14
2019-02-19T22:10:29.623Z,73.01
2019-02-19T22:12:57.908Z,72.94
2019-02-19T22:15:26.217Z,72.90
2019-02-19T22:17:54.502Z,72.79
2019-02-19T22:20:27.714Z,72.67
2019-02-19T22:22:56.012Z,72.62
2019-02-19T22:25:24.335Z,72.53
2019-02-19T22:27:52.963Z,72.42
2019-02-19T22:30:21.266Z,72.44
2019-02-19T22:32:49.658Z,72.55
2019-02-19T22:35:17.962Z,72.66
2019-02-19T22:37:46.569Z,72.75
2019-02-19T22:40:14.859Z,72.84
2019-02-19T22:42:43.163Z,72.83
2019-02-19T22:45:11.534Z,72.85
2019-02-19T22:47:39.846Z,72.82
2019-02-19T22:50:09.609Z,72.88
2019-02-19T22:52:37.928Z,72.90
2019-02-19T22:55:13.102Z,72.87
2019-02-19T22:57:41.418Z,72.87
2019-02-19T23:00:17.071Z,72.89
2019-02-19T23:02:46.447Z,72.92
2019-02-19T23:05:14.769Z,73.00
2019-02-19T23:07:43.078Z,73.16
2019-02-19T23:10:11.376Z,73.43
2019-02-19T23:12:39.959Z,73.50
2019-02-19T23:15:08.263Z,73.58
2019-02-19T23:17:36.574Z,73.63
2019-02-19T23:20:06.728Z,73.81
2019-02-19T23:22:35.310Z,73.98
2019-02-19T23:25:04.125Z,73.96
2019-02-19T23:27:32.398Z,73.80
2019-02-19T23:30:00.701Z,73.75
2019-02-19T23:32:28.985Z,73.73
2019-02-19T23:35:15.080Z,73.74
2019-02-19T23:37:43.438Z,73.85
2019-02-19T23:40:11.748Z,73.83
2019-02-19T23:42:40.370Z,73.84
2019-02-19T23:45:09.453Z,74.00
2019-02-19T23:47:37.793Z,74.17
2019-02-19T23:50:07.825Z,74.34
2019-02-19T23:52:36.140Z,74.40
2019-02-19T23:55:06.802Z,74.50
2019-02-19T23:57:35.109Z,74.73
